This is the latest recevied weather packets stored in our database for station/object IW1CBG-3. If no packets are shown the sender has not sent any weather packets the latest 10 day(s).
| Time | Temp. | Humidity | Pressure | Rain* | Wind** | Luminosity | Snow |
|---|---|---|---|---|---|---|---|
| 1777453238 | 16.67° C | 73% | 1026.8 hPa | 0 mm | - | - | - |
| 1777452639 | 16.11° C | 73% | 1026.8 hPa | 0 mm | - | - | - |
| 1777452038 | 16.67° C | 74% | 1026.9 hPa | 0 mm | - | - | - |
| 1777451439 | 16.11° C | 74% | 1027.1 hPa | 0 mm | - | - | - |
| 1777450837 | 16.11° C | 74% | 1027.2 hPa | 0 mm | - | - | - |
| 1777450238 | 15.56° C | 75% | 1026.7 hPa | 0 mm | - | - | - |
| 1777449639 | 15.56° C | 75% | 1027.3 hPa | 0 mm | - | - | - |
| 1777449039 | 15° C | 75% | 1027.4 hPa | 0 mm | - | - | - |
| 1777448437 | 14.44° C | 76% | 1027.4 hPa | 0 mm | - | - | - |
| 1777447838 | 13.89° C | 75% | 1027.9 hPa | 0 mm | - | - | - |
| 1777447237 | 13.33° C | 77% | 1028.3 hPa | 0 mm | - | - | - |
| 1777446639 | 11.67° C | 81% | 1028.7 hPa | 0 mm | - | - | - |
| 1777446039 | 10° C | 85% | 1028.9 hPa | 0 mm | - | - | - |
| 1777445439 | 10° C | 86% | 1029.2 hPa | 0 mm | - | - | - |
| 1777444838 | 9.44° C | 87% | 1029.5 hPa | 0 mm | - | - | - |
| 1777444238 | 8.89° C | 89% | 1029.4 hPa | 0 mm | - | - | - |
| 1777443637 | 8.33° C | 89% | 1030 hPa | 0 mm | - | - | - |
| 1777443038 | 8.33° C | 89% | 1029.8 hPa | 0 mm | - | - | - |
| 1777442438 | 7.78° C | 91% | 1029.9 hPa | 0 mm | - | - | - |
| 1777441839 | 7.22° C | 94% | 1030 hPa | 0 mm | - | - | - |
| 1777441238 | 7.22° C | 95% | 1030.1 hPa | 0 mm | - | - | - |
| 1777440638 | 6.67° C | 96% | 1030.3 hPa | 0 mm | - | - | - |
| 1777440038 | 6.67° C | 96% | 1030.4 hPa | 0 mm | - | - | - |
| 1777439438 | 6.67° C | 96% | 1030.3 hPa | 0 mm | - | - | - |
| 1777438838 | 6.11° C | 96% | 1030.3 hPa | 0 mm | - | - | - |
* Rain latest hour (hover to see other rain measurements)
** Current wind speed in m/s (hover to see current wind gust speed)